createdAt,value
2019-03-24T00:00:08.724Z,29.10
2019-03-24T00:02:14.567Z,28.33
2019-03-24T00:04:19.430Z,29.83
2019-03-24T00:06:24.391Z,29.60
2019-03-24T00:08:29.152Z,30.13
2019-03-24T00:10:33.970Z,28.43
2019-03-24T00:12:38.693Z,29.37
2019-03-24T00:14:43.592Z,31.50
2019-03-24T00:16:48.377Z,29.43
2019-03-24T00:18:53.342Z,28.10
2019-03-24T00:20:58.064Z,29.10
2019-03-24T00:23:03.007Z,28.27
2019-03-24T00:25:08.761Z,29.87
2019-03-24T00:27:13.708Z,29.77
2019-03-24T00:29:18.691Z,29.80
2019-03-24T00:31:23.566Z,28.07
2019-03-24T00:33:28.721Z,28.30
2019-03-24T00:35:33.634Z,28.93
2019-03-24T00:37:38.645Z,29.80
2019-03-24T00:39:43.685Z,29.63
2019-03-24T00:41:48.465Z,28.23
2019-03-24T00:43:53.364Z,27.53
2019-03-24T00:45:58.319Z,28.73
2019-03-24T00:48:03.417Z,28.53
2019-03-24T00:50:08.706Z,28.30
2019-03-24T00:52:13.850Z,28.17
2019-03-24T00:54:18.862Z,30.63
2019-03-24T00:56:23.950Z,27.80
2019-03-24T00:58:28.932Z,28.67
2019-03-24T01:00:47.470Z,29.30
2019-03-24T01:02:52.521Z,27.90
2019-03-24T01:04:57.439Z,27.80
2019-03-24T01:07:02.545Z,28.40
2019-03-24T01:09:08.502Z,28.57
2019-03-24T01:11:13.594Z,28.83
2019-03-24T01:13:18.493Z,28.47
2019-03-24T01:15:23.506Z,28.40
2019-03-24T01:17:28.603Z,27.60
2019-03-24T01:19:33.728Z,28.17
2019-03-24T01:21:38.627Z,27.33
2019-03-24T01:23:43.697Z,26.77
2019-03-24T01:25:48.614Z,27.67
2019-03-24T01:27:53.498Z,28.10
2019-03-24T01:29:58.518Z,27.80
2019-03-24T01:32:03.574Z,27.47
2019-03-24T01:34:08.718Z,28.17
2019-03-24T01:36:14.075Z,25.80
2019-03-24T01:38:18.987Z,26.50
2019-03-24T01:40:23.975Z,25.90
2019-03-24T01:42:29.100Z,26.87
2019-03-24T01:44:34.153Z,26.60
2019-03-24T01:46:38.976Z,28.03
2019-03-24T01:48:43.875Z,26.50
2019-03-24T01:50:48.719Z,26.90
2019-03-24T01:52:53.796Z,26.67
2019-03-24T01:54:58.994Z,26.17
2019-03-24T01:57:04.194Z,25.60
2019-03-24T01:59:09.234Z,25.83
2019-03-24T02:01:14.350Z,25.10
2019-03-24T02:03:19.331Z,26.37
2019-03-24T02:05:24.352Z,25.83
2019-03-24T02:07:29.406Z,26.17
2019-03-24T02:09:34.504Z,24.67
2019-03-24T02:11:40.633Z,25.20
2019-03-24T02:13:46.982Z,23.20
2019-03-24T02:15:52.308Z,26.10
2019-03-24T02:17:57.395Z,26.70
2019-03-24T02:20:05.260Z,23.70
2019-03-24T02:22:10.482Z,24.40
2019-03-24T02:24:15.318Z,24.40
2019-03-24T02:26:20.315Z,23.00
2019-03-24T02:28:26.018Z,24.33
2019-03-24T02:30:30.963Z,24.03
2019-03-24T02:32:37.229Z,23.03
2019-03-24T02:34:42.416Z,22.83
2019-03-24T02:36:47.475Z,23.13
2019-03-24T02:38:52.641Z,22.80
2019-03-24T02:40:57.663Z,24.17
2019-03-24T02:43:04.035Z,22.30
2019-03-24T02:45:10.083Z,23.60
2019-03-24T02:47:15.514Z,21.90
2019-03-24T02:49:20.422Z,21.67
2019-03-24T02:51:25.807Z,23.60
2019-03-24T02:53:31.350Z,23.13
2019-03-24T02:55:36.454Z,21.90
2019-03-24T02:57:41.977Z,23.37
2019-03-24T02:59:47.112Z,22.07
2019-03-24T03:01:52.767Z,22.50
2019-03-24T03:03:57.797Z,22.43
2019-03-24T03:06:03.912Z,21.40
2019-03-24T03:08:09.436Z,21.57
2019-03-24T03:10:18.867Z,23.63
2019-03-24T03:12:26.666Z,21.73
2019-03-24T03:14:33.361Z,21.80
2019-03-24T03:16:39.826Z,22.23
2019-03-24T03:18:45.549Z,22.73
2019-03-24T03:20:50.765Z,21.43
2019-03-24T03:22:55.560Z,21.50
2019-03-24T03:25:00.508Z,21.97
2019-03-24T03:27:05.575Z,21.13
2019-03-24T03:29:10.695Z,22.33
2019-03-24T03:31:15.612Z,22.50
2019-03-24T03:33:20.887Z,19.77
2019-03-24T03:35:25.767Z,20.47
2019-03-24T03:37:30.703Z,20.60
2019-03-24T03:39:36.366Z,19.70
2019-03-24T03:41:41.203Z,20.00
2019-03-24T03:43:46.415Z,20.10
2019-03-24T03:45:51.182Z,20.43
2019-03-24T03:47:56.043Z,19.83
2019-03-24T03:50:00.977Z,21.20
2019-03-24T03:52:06.269Z,20.37
2019-03-24T03:54:11.295Z,20.33
2019-03-24T03:56:16.199Z,19.50
2019-03-24T03:58:21.338Z,20.23
2019-03-24T04:00:33.360Z,19.60
2019-03-24T04:02:38.583Z,19.27
2019-03-24T04:04:43.582Z,20.00
2019-03-24T04:06:48.682Z,19.70
2019-03-24T04:08:53.793Z,18.70
2019-03-24T04:10:58.559Z,18.87
2019-03-24T04:13:03.516Z,18.67
2019-03-24T04:15:08.366Z,19.03
2019-03-24T04:17:13.282Z,17.37
2019-03-24T04:19:18.194Z,19.20
2019-03-24T04:21:23.255Z,18.40
2019-03-24T04:23:28.686Z,18.70
2019-03-24T04:25:34.217Z,18.10
2019-03-24T04:27:39.883Z,18.27
2019-03-24T04:29:44.870Z,16.30
2019-03-24T04:31:49.836Z,17.83
2019-03-24T04:33:54.825Z,18.30
2019-03-24T04:36:00.226Z,17.23
2019-03-24T04:38:05.262Z,17.53
2019-03-24T04:40:10.192Z,15.83
2019-03-24T04:42:15.401Z,17.10
2019-03-24T04:44:20.927Z,17.37
2019-03-24T04:46:25.754Z,17.80
2019-03-24T04:48:30.922Z,16.67
2019-03-24T04:50:36.346Z,16.60
2019-03-24T04:52:41.489Z,16.33
2019-03-24T04:54:46.513Z,16.60
2019-03-24T04:56:51.352Z,16.60
2019-03-24T04:58:56.318Z,16.50
2019-03-24T05:01:01.888Z,15.80
2019-03-24T05:03:07.067Z,15.10
2019-03-24T05:05:12.102Z,15.73
2019-03-24T05:07:16.896Z,16.30
2019-03-24T05:09:21.957Z,15.23
2019-03-24T05:11:26.760Z,16.27
2019-03-24T05:13:32.026Z,15.70
2019-03-24T05:15:37.023Z,15.30
2019-03-24T05:17:41.965Z,15.33
2019-03-24T05:19:46.820Z,16.40
2019-03-24T05:21:51.558Z,14.20
2019-03-24T05:23:56.549Z,15.87
2019-03-24T05:26:01.796Z,16.40
2019-03-24T05:28:06.870Z,14.60
2019-03-24T05:30:14.516Z,14.43
2019-03-24T05:32:19.972Z,15.10
2019-03-24T05:34:24.791Z,14.30
2019-03-24T05:36:30.166Z,13.57
2019-03-24T05:38:35.567Z,13.63
2019-03-24T05:40:40.669Z,12.93
2019-03-24T05:42:46.589Z,13.70
2019-03-24T05:44:51.891Z,13.20
2019-03-24T05:46:57.489Z,13.40
2019-03-24T05:49:03.362Z,14.73
2019-03-24T05:51:09.400Z,13.87
2019-03-24T05:53:15.412Z,13.27
2019-03-24T05:55:20.911Z,13.10
2019-03-24T05:57:26.170Z,12.90
2019-03-24T05:59:31.746Z,12.43
2019-03-24T06:01:37.160Z,13.30
2019-03-24T06:03:44.335Z,12.80
2019-03-24T06:05:49.439Z,12.50
2019-03-24T06:07:55.999Z,12.30
2019-03-24T06:10:01.370Z,12.03
2019-03-24T06:12:08.468Z,12.73
2019-03-24T06:14:13.706Z,12.40
2019-03-24T06:16:19.372Z,12.77
2019-03-24T06:18:24.578Z,12.27
2019-03-24T06:20:32.639Z,12.90
2019-03-24T06:22:40.964Z,11.93
2019-03-24T06:24:46.617Z,12.00
2019-03-24T06:26:56.884Z,11.43
2019-03-24T06:29:02.291Z,11.83
2019-03-24T06:31:07.986Z,12.30
2019-03-24T06:33:16.521Z,11.57
2019-03-24T06:35:21.927Z,11.47
2019-03-24T06:37:27.468Z,11.80
2019-03-24T06:39:33.454Z,12.33
2019-03-24T06:41:39.350Z,11.70
2019-03-24T06:43:54.538Z,11.27
2019-03-24T06:45:59.957Z,10.73
2019-03-24T06:48:05.972Z,11.87
2019-03-24T06:50:11.357Z,12.07
2019-03-24T06:52:17.729Z,11.53
2019-03-24T06:54:23.568Z,11.53
2019-03-24T06:56:32.374Z,11.60
2019-03-24T06:58:38.157Z,11.23
2019-03-24T07:00:45.731Z,11.50
2019-03-24T07:02:51.489Z,10.80
2019-03-24T07:05:01.252Z,11.60
2019-03-24T07:07:10.079Z,11.93
2019-03-24T07:09:15.361Z,11.40
2019-03-24T07:11:21.461Z,12.17
2019-03-24T07:13:26.859Z,11.10
2019-03-24T07:15:33.274Z,12.80
2019-03-24T07:17:38.705Z,13.30
2019-03-24T07:19:44.705Z,11.37
2019-03-24T07:21:49.711Z,11.97
2019-03-24T07:23:55.024Z,11.40
2019-03-24T07:26:00.053Z,12.10
2019-03-24T07:28:05.198Z,12.33
2019-03-24T07:30:10.722Z,13.07
2019-03-24T07:32:15.875Z,13.60
2019-03-24T07:34:20.900Z,12.43
2019-03-24T07:36:26.432Z,13.40
2019-03-24T07:38:31.824Z,13.20
2019-03-24T07:40:36.661Z,12.77
2019-03-24T07:42:41.956Z,14.50
2019-03-24T07:44:46.998Z,13.10
2019-03-24T07:46:53.773Z,14.00
2019-03-24T07:49:00.658Z,13.37
2019-03-24T07:51:08.027Z,14.00
2019-03-24T07:53:13.552Z,14.03
2019-03-24T07:55:18.484Z,13.73
2019-03-24T07:57:23.593Z,14.70
2019-03-24T07:59:30.053Z,14.47
2019-03-24T08:01:34.770Z,14.47
2019-03-24T08:03:39.656Z,14.70
2019-03-24T08:05:46.078Z,15.37
2019-03-24T08:07:50.943Z,15.50
2019-03-24T08:09:55.885Z,14.13
2019-03-24T08:12:00.686Z,16.00
2019-03-24T08:14:06.234Z,14.80
2019-03-24T08:16:11.063Z,15.03
2019-03-24T08:18:15.807Z,16.00
2019-03-24T08:20:20.836Z,16.30
2019-03-24T08:22:25.463Z,17.47
2019-03-24T08:24:30.227Z,17.40
2019-03-24T08:26:35.372Z,15.80
2019-03-24T08:28:41.025Z,17.03
2019-03-24T08:30:46.033Z,18.13
2019-03-24T08:32:51.289Z,17.30
2019-03-24T08:34:56.995Z,17.70
2019-03-24T08:37:03.362Z,17.30
2019-03-24T08:39:08.318Z,18.20
2019-03-24T08:41:16.628Z,17.13
2019-03-24T08:43:26.032Z,17.50
2019-03-24T08:45:33.746Z,17.73
2019-03-24T08:47:39.175Z,17.57
2019-03-24T08:49:44.047Z,18.23
2019-03-24T08:51:51.256Z,18.57
2019-03-24T08:53:56.173Z,18.60
2019-03-24T08:56:10.860Z,17.60
2019-03-24T08:58:19.369Z,18.97
2019-03-24T09:00:45.210Z,19.47
2019-03-24T09:02:51.278Z,18.90
2019-03-24T09:04:57.483Z,18.20
2019-03-24T09:07:15.128Z,18.93
2019-03-24T09:09:21.244Z,19.73
2019-03-24T09:11:45.794Z,17.90
2019-03-24T09:13:56.371Z,20.03
2019-03-24T09:16:07.193Z,19.40
2019-03-24T09:18:12.892Z,20.53
2019-03-24T09:20:18.824Z,21.33
2019-03-24T09:22:23.993Z,20.93
2019-03-24T09:24:31.197Z,20.43
2019-03-24T09:26:36.253Z,20.40
2019-03-24T09:28:42.465Z,21.47
2019-03-24T09:30:47.914Z,21.10
2019-03-24T09:32:59.832Z,21.47
2019-03-24T09:35:05.446Z,20.97
2019-03-24T09:37:10.963Z,20.27
2019-03-24T09:39:15.642Z,19.17
2019-03-24T09:41:21.711Z,20.80
2019-03-24T09:43:27.714Z,20.00
2019-03-24T09:45:32.649Z,19.90
2019-03-24T09:47:37.967Z,20.53
2019-03-24T09:49:43.426Z,20.70
2019-03-24T09:51:51.730Z,19.60
2019-03-24T09:53:58.211Z,20.50
2019-03-24T09:56:05.194Z,20.30
2019-03-24T09:58:10.428Z,20.40
2019-03-24T10:00:15.256Z,19.67
2019-03-24T10:02:20.216Z,20.97
2019-03-24T10:04:25.090Z,20.80
2019-03-24T10:06:36.978Z,19.93
2019-03-24T10:08:46.958Z,21.23
2019-03-24T10:10:49.165Z,20.20
2019-03-24T10:12:54.331Z,21.03
2019-03-24T10:14:59.167Z,20.17
2019-03-24T10:17:14.705Z,21.13
2019-03-24T10:19:23.728Z,19.57
2019-03-24T10:21:29.206Z,20.33
2019-03-24T10:23:34.038Z,19.67
2019-03-24T10:25:39.038Z,20.17
2019-03-24T10:27:43.743Z,20.30
2019-03-24T10:29:49.145Z,19.73
2019-03-24T10:31:55.729Z,19.37
2019-03-24T10:34:00.595Z,19.50
2019-03-24T10:36:05.415Z,20.80
2019-03-24T10:38:10.562Z,19.40
2019-03-24T10:40:15.352Z,20.33
2019-03-24T10:42:21.705Z,21.97
2019-03-24T10:44:30.256Z,18.87
2019-03-24T10:46:36.224Z,19.27
2019-03-24T10:48:40.945Z,21.23
2019-03-24T10:50:46.103Z,20.63
2019-03-24T10:52:51.276Z,21.70
2019-03-24T10:54:56.720Z,21.13
2019-03-24T10:57:02.037Z,22.90
2019-03-24T10:59:07.089Z,22.70
2019-03-24T11:01:11.970Z,21.67
2019-03-24T11:03:17.121Z,22.60
2019-03-24T11:05:21.937Z,22.07
2019-03-24T11:07:26.749Z,21.80
2019-03-24T11:09:31.504Z,23.80
2019-03-24T11:11:36.273Z,23.30
2019-03-24T11:13:41.581Z,22.17
2019-03-24T11:15:46.356Z,23.27
2019-03-24T11:17:51.267Z,23.17
2019-03-24T11:19:56.088Z,23.10
2019-03-24T11:22:01.504Z,22.30
2019-03-24T11:24:06.290Z,24.17
2019-03-24T11:26:11.393Z,24.00
2019-03-24T11:28:16.110Z,24.80
2019-03-24T11:30:20.851Z,23.97
2019-03-24T11:32:25.586Z,23.77
2019-03-24T11:34:30.418Z,24.13
2019-03-24T11:36:35.244Z,25.20
2019-03-24T11:38:39.973Z,24.20
2019-03-24T11:40:44.718Z,23.70
2019-03-24T11:42:49.428Z,24.50
2019-03-24T11:44:54.168Z,25.80
2019-03-24T11:46:58.901Z,24.87
2019-03-24T11:49:03.788Z,24.90
2019-03-24T11:51:09.320Z,24.50
2019-03-24T11:53:14.139Z,24.43
2019-03-24T11:55:19.108Z,24.07
2019-03-24T11:57:23.905Z,25.10
2019-03-24T11:59:28.693Z,24.80
2019-03-24T12:01:38.160Z,24.27
2019-03-24T12:03:40.033Z,24.43
2019-03-24T12:05:44.754Z,23.03
2019-03-24T12:07:49.516Z,23.77
2019-03-24T12:09:54.301Z,24.47
2019-03-24T12:11:59.031Z,23.80
2019-03-24T12:14:04.339Z,23.40
2019-03-24T12:16:09.377Z,23.40
2019-03-24T12:18:14.122Z,22.70
2019-03-24T12:20:19.021Z,23.03
2019-03-24T12:22:23.785Z,25.23
2019-03-24T12:24:28.667Z,23.27
2019-03-24T12:26:33.469Z,22.80
2019-03-24T12:28:38.322Z,23.07
2019-03-24T12:30:43.167Z,24.10
2019-03-24T12:32:48.252Z,24.93
2019-03-24T12:34:53.178Z,22.67
2019-03-24T12:36:58.197Z,24.23
2019-03-24T12:39:03.288Z,24.00
2019-03-24T12:41:08.032Z,23.60
2019-03-24T12:43:19.401Z,22.47
2019-03-24T12:45:20.573Z,23.93
2019-03-24T12:47:29.360Z,23.20
2019-03-24T12:49:34.328Z,21.97
2019-03-24T12:54:31.492Z,22.10
2019-03-24T12:56:36.396Z,23.60
2019-03-24T12:58:41.187Z,23.17
2019-03-24T13:00:46.010Z,22.37
2019-03-24T13:02:50.779Z,22.97
2019-03-24T13:04:55.647Z,21.03
2019-03-24T13:07:00.486Z,22.17
2019-03-24T13:09:07.534Z,23.40
2019-03-24T13:11:12.335Z,23.70
2019-03-24T13:13:17.454Z,22.33
2019-03-24T13:15:22.202Z,21.37
2019-03-24T13:17:27.139Z,21.70
2019-03-24T13:19:31.964Z,22.07
2019-03-24T13:21:36.744Z,21.10
2019-03-24T13:23:41.411Z,21.70
2019-03-24T13:25:46.348Z,22.30
2019-03-24T13:27:51.266Z,21.67
2019-03-24T13:29:56.049Z,21.53
2019-03-24T13:32:00.903Z,19.60
2019-03-24T13:34:06.041Z,21.90
2019-03-24T13:36:13.013Z,20.17
2019-03-24T13:38:18.303Z,20.07
2019-03-24T13:40:23.281Z,21.03
2019-03-24T13:42:28.202Z,20.23
2019-03-24T13:44:32.999Z,19.57
2019-03-24T13:46:37.773Z,19.33
2019-03-24T13:48:42.572Z,18.63
2019-03-24T13:50:47.609Z,20.43
2019-03-24T13:52:52.318Z,19.20
2019-03-24T13:54:57.030Z,19.80
2019-03-24T13:57:02.069Z,19.27
2019-03-24T13:59:06.890Z,19.40
2019-03-24T14:01:12.303Z,18.50
2019-03-24T14:03:17.077Z,19.00
2019-03-24T14:05:21.792Z,19.30
2019-03-24T14:07:26.529Z,17.80
2019-03-24T14:09:31.373Z,18.60
2019-03-24T14:11:36.179Z,20.30
2019-03-24T14:13:40.898Z,19.80
2019-03-24T14:15:45.711Z,18.90
2019-03-24T14:17:50.462Z,18.83
2019-03-24T14:19:55.435Z,19.97
2019-03-24T14:22:00.313Z,19.63
2019-03-24T14:24:05.281Z,17.80
2019-03-24T14:26:10.157Z,18.90
2019-03-24T14:28:14.863Z,18.50
2019-03-24T14:30:25.325Z,19.20
2019-03-24T14:32:30.071Z,18.70
2019-03-24T14:34:34.849Z,19.47
2019-03-24T14:36:39.674Z,18.80
2019-03-24T14:38:44.464Z,20.33
2019-03-24T14:40:49.206Z,19.47
2019-03-24T14:42:53.966Z,19.47
2019-03-24T14:44:58.735Z,20.03
2019-03-24T14:47:04.519Z,20.60
2019-03-24T14:49:09.225Z,21.20
2019-03-24T14:51:13.997Z,19.53
2019-03-24T14:53:18.750Z,20.17
2019-03-24T14:55:23.488Z,19.87
2019-03-24T14:57:28.534Z,20.60
2019-03-24T14:59:33.310Z,20.60
2019-03-24T15:01:38.422Z,20.00
2019-03-24T15:03:43.243Z,19.93
2019-03-24T15:05:48.252Z,20.70
2019-03-24T15:07:53.064Z,20.07
2019-03-24T15:09:57.825Z,22.03
2019-03-24T15:12:02.965Z,19.67
2019-03-24T15:14:08.004Z,18.63
2019-03-24T15:16:12.812Z,20.67
2019-03-24T15:18:17.552Z,19.53
2019-03-24T15:20:22.674Z,19.20
2019-03-24T15:22:27.492Z,21.03
2019-03-24T15:24:32.458Z,19.80
2019-03-24T15:26:37.190Z,20.60
2019-03-24T15:28:42.034Z,19.00
2019-03-24T15:30:46.773Z,20.10
2019-03-24T15:32:53.421Z,19.90
2019-03-24T15:34:57.957Z,19.50
2019-03-24T15:37:02.764Z,19.97
2019-03-24T15:39:09.480Z,19.90
2019-03-24T15:41:14.302Z,18.60
2019-03-24T15:43:19.058Z,18.63
2019-03-24T15:45:23.782Z,18.60
2019-03-24T15:47:28.554Z,18.93
2019-03-24T15:49:33.567Z,19.33
2019-03-24T15:51:38.415Z,19.60
2019-03-24T15:53:43.767Z,19.07
2019-03-24T15:55:48.988Z,19.33
2019-03-24T15:57:53.658Z,18.10
2019-03-24T15:59:58.401Z,18.17
2019-03-24T16:02:03.146Z,18.47
2019-03-24T16:04:08.102Z,18.20
2019-03-24T16:06:12.968Z,18.90
2019-03-24T16:08:17.856Z,18.60
2019-03-24T16:10:22.629Z,17.97
2019-03-24T16:12:28.089Z,19.83
2019-03-24T16:14:32.959Z,20.40
2019-03-24T16:16:37.726Z,20.27
2019-03-24T16:18:42.659Z,18.80
2019-03-24T16:20:47.457Z,18.67
2019-03-24T16:22:52.288Z,19.30
2019-03-24T16:24:57.127Z,20.13
2019-03-24T16:27:02.038Z,19.73
2019-03-24T16:29:06.831Z,19.90
2019-03-24T16:31:11.571Z,19.13
2019-03-24T16:33:16.558Z,20.20
2019-03-24T16:35:21.531Z,19.67
2019-03-24T16:37:26.419Z,20.70
2019-03-24T16:39:31.183Z,21.40
2019-03-24T16:41:35.905Z,21.23
2019-03-24T16:43:40.746Z,20.90
2019-03-24T16:45:47.287Z,21.37
2019-03-24T16:47:51.975Z,20.90
2019-03-24T16:49:56.739Z,22.27
2019-03-24T16:52:02.839Z,21.63
2019-03-24T16:54:08.392Z,24.07
2019-03-24T16:56:13.314Z,22.10
2019-03-24T16:58:18.586Z,22.07
2019-03-24T17:00:23.617Z,22.40
2019-03-24T17:02:29.022Z,23.30
2019-03-24T17:04:34.321Z,24.07
2019-03-24T17:06:39.103Z,23.23
2019-03-24T17:08:44.148Z,22.83
2019-03-24T17:10:48.952Z,22.63
2019-03-24T17:12:54.090Z,21.77
2019-03-24T17:14:59.067Z,25.30
2019-03-24T17:17:03.988Z,22.23
2019-03-24T17:19:11.583Z,22.87
2019-03-24T17:21:17.853Z,22.47
2019-03-24T17:23:22.931Z,21.90
2019-03-24T17:25:27.839Z,24.17
2019-03-24T17:27:33.359Z,24.00
2019-03-24T17:29:38.255Z,23.17
2019-03-24T17:31:43.511Z,23.37
2019-03-24T17:33:49.017Z,24.60
2019-03-24T17:35:54.141Z,23.60
2019-03-24T17:37:59.095Z,23.80
2019-03-24T17:40:05.419Z,22.53
2019-03-24T17:42:10.619Z,22.50
2019-03-24T17:44:16.630Z,22.30
2019-03-24T17:46:21.526Z,22.47
2019-03-24T17:48:26.353Z,22.20
2019-03-24T17:50:31.194Z,21.50
2019-03-24T17:52:37.391Z,21.83
2019-03-24T17:54:42.697Z,22.17
2019-03-24T17:56:48.458Z,22.07
2019-03-24T17:58:54.025Z,21.40
2019-03-24T18:00:58.928Z,20.90
2019-03-24T18:03:04.543Z,21.60
2019-03-24T18:05:09.371Z,20.73
2019-03-24T18:07:15.906Z,21.17
2019-03-24T18:09:22.048Z,22.53
2019-03-24T18:11:27.067Z,20.70
2019-03-24T18:13:31.845Z,22.37
2019-03-24T18:15:38.890Z,22.00
2019-03-24T18:17:43.615Z,22.60
2019-03-24T18:19:48.508Z,21.20
2019-03-24T18:21:53.270Z,21.27
2019-03-24T18:23:58.382Z,20.27
2019-03-24T18:26:03.937Z,21.20
2019-03-24T18:28:09.235Z,20.17
2019-03-24T18:30:14.244Z,20.30
2019-03-24T18:32:19.027Z,20.63
2019-03-24T18:34:23.930Z,20.37
2019-03-24T18:36:28.663Z,20.43
2019-03-24T18:38:33.420Z,19.83
2019-03-24T18:40:38.697Z,19.77
2019-03-24T18:42:43.389Z,20.10
2019-03-24T18:44:49.144Z,20.63
2019-03-24T18:46:54.048Z,21.27
2019-03-24T18:48:58.848Z,20.40
2019-03-24T18:51:04.310Z,20.70
2019-03-24T18:53:09.139Z,21.20
2019-03-24T18:55:14.426Z,20.00
2019-03-24T18:57:19.645Z,19.43
2019-03-24T18:59:24.564Z,20.13
2019-03-24T19:01:29.563Z,20.17
2019-03-24T19:03:34.875Z,19.47
2019-03-24T19:05:39.837Z,21.03
2019-03-24T19:07:46.401Z,20.53
2019-03-24T19:09:51.083Z,19.87
2019-03-24T19:11:55.952Z,18.43
2019-03-24T19:14:01.322Z,20.03
2019-03-24T19:16:06.142Z,19.57
2019-03-24T19:18:11.068Z,20.27
2019-03-24T19:20:15.836Z,19.60
2019-03-24T19:22:20.554Z,19.37
2019-03-24T19:24:25.438Z,21.63
2019-03-24T19:26:30.274Z,20.00
2019-03-24T19:28:35.025Z,21.07
2019-03-24T19:30:42.923Z,19.90
2019-03-24T19:32:47.835Z,20.67
2019-03-24T19:34:52.733Z,18.83
2019-03-24T19:36:58.443Z,21.00
2019-03-24T19:39:04.287Z,20.20
2019-03-24T19:41:09.204Z,19.40
2019-03-24T19:43:14.043Z,20.20
2019-03-24T19:45:19.026Z,20.40
2019-03-24T19:47:23.759Z,20.53
2019-03-24T19:49:28.503Z,19.87
2019-03-24T19:51:33.454Z,18.20
2019-03-24T19:53:38.370Z,20.63
2019-03-24T19:55:43.342Z,20.50
2019-03-24T19:57:48.119Z,20.87
2019-03-24T19:59:53.351Z,19.30
2019-03-24T20:01:58.226Z,19.77
2019-03-24T20:04:03.270Z,19.77
2019-03-24T20:06:08.055Z,20.57
2019-03-24T20:08:12.812Z,21.40
2019-03-24T20:10:18.179Z,19.67
2019-03-24T20:12:22.943Z,20.77
2019-03-24T20:14:27.837Z,19.60
2019-03-24T20:16:32.648Z,19.90
2019-03-24T20:18:37.719Z,20.77
2019-03-24T20:20:42.674Z,20.10
2019-03-24T20:22:56.496Z,19.93
2019-03-24T20:24:54.591Z,20.00
2019-03-24T20:26:59.367Z,20.30
2019-03-24T20:29:04.446Z,20.53
2019-03-24T20:31:09.789Z,20.77
2019-03-24T20:33:15.114Z,20.87
2019-03-24T20:35:20.306Z,18.57
2019-03-24T20:37:25.036Z,20.27
2019-03-24T20:39:30.517Z,19.87
2019-03-24T20:41:35.659Z,20.97
2019-03-24T20:43:40.561Z,20.30
2019-03-24T20:45:45.417Z,20.97
2019-03-24T20:47:50.180Z,20.37
2019-03-24T20:49:55.653Z,20.60
2019-03-24T20:52:00.448Z,21.87
2019-03-24T20:54:05.506Z,22.00
2019-03-24T20:56:10.407Z,20.20
2019-03-24T20:58:15.706Z,20.00
2019-03-24T21:00:35.867Z,20.13
2019-03-24T21:02:43.461Z,20.47
2019-03-24T21:04:48.458Z,20.30
2019-03-24T21:06:53.619Z,19.00
2019-03-24T21:08:58.466Z,20.17
2019-03-24T21:11:03.887Z,18.87
2019-03-24T21:13:08.748Z,18.80
2019-03-24T21:15:14.075Z,20.20
2019-03-24T21:17:19.353Z,20.13
2019-03-24T21:19:24.451Z,19.27
2019-03-24T21:21:29.539Z,20.40
2019-03-24T21:23:34.783Z,19.77
2019-03-24T21:25:39.659Z,20.63
2019-03-24T21:27:44.561Z,20.77
2019-03-24T21:29:49.331Z,19.40
2019-03-24T21:31:55.187Z,20.70
2019-03-24T21:34:00.483Z,20.03
2019-03-24T21:36:05.615Z,19.90
2019-03-24T21:38:10.680Z,21.60
2019-03-24T21:40:16.138Z,20.57
2019-03-24T21:42:20.947Z,19.67
2019-03-24T21:44:29.622Z,20.67
2019-03-24T21:46:35.267Z,22.10
2019-03-24T21:48:40.494Z,19.40
2019-03-24T21:50:45.525Z,20.80
2019-03-24T21:52:50.350Z,20.13
2019-03-24T21:54:55.177Z,22.23
2019-03-24T21:56:59.949Z,21.10
2019-03-24T21:59:05.170Z,21.97
2019-03-24T22:01:10.266Z,20.30
2019-03-24T22:03:15.067Z,22.47
2019-03-24T22:05:20.208Z,22.83
2019-03-24T22:07:24.903Z,22.30
2019-03-24T22:09:29.706Z,22.83
2019-03-24T22:11:34.515Z,21.77
2019-03-24T22:13:39.329Z,21.73
2019-03-24T22:15:44.048Z,21.83
2019-03-24T22:17:48.956Z,22.03
2019-03-24T22:19:53.996Z,22.97
2019-03-24T22:21:58.803Z,23.13
2019-03-24T22:24:03.882Z,23.50
2019-03-24T22:26:08.966Z,25.00
2019-03-24T22:28:14.089Z,22.20
2019-03-24T22:30:19.023Z,24.20
2019-03-24T22:32:23.769Z,24.60
2019-03-24T22:34:28.850Z,23.40
2019-03-24T22:36:33.820Z,23.47
2019-03-24T22:38:39.608Z,24.73
2019-03-24T22:40:44.965Z,23.63
2019-03-24T22:42:49.786Z,24.93
2019-03-24T22:44:54.834Z,23.90
2019-03-24T22:46:59.625Z,24.90
2019-03-24T22:49:04.722Z,24.00
2019-03-24T22:51:09.866Z,24.43
2019-03-24T22:53:14.696Z,24.07
2019-03-24T22:55:19.879Z,24.30
2019-03-24T22:57:24.806Z,25.50
2019-03-24T22:59:31.828Z,25.57
2019-03-24T23:01:36.535Z,23.80
2019-03-24T23:03:42.814Z,23.97
2019-03-24T23:05:48.647Z,23.10
2019-03-24T23:07:55.259Z,24.50
2019-03-24T23:10:00.555Z,23.30
2019-03-24T23:12:05.983Z,23.80
2019-03-24T23:14:10.861Z,22.87
2019-03-24T23:16:17.639Z,24.80
2019-03-24T23:18:23.826Z,23.30
2019-03-24T23:20:28.816Z,23.07
2019-03-24T23:22:33.903Z,21.90
2019-03-24T23:24:39.266Z,23.57
2019-03-24T23:26:44.802Z,24.60
2019-03-24T23:28:49.814Z,24.30
2019-03-24T23:30:55.234Z,24.20
2019-03-24T23:33:00.236Z,22.33
2019-03-24T23:35:05.769Z,24.30
2019-03-24T23:37:10.538Z,23.03
2019-03-24T23:39:15.528Z,23.27
2019-03-24T23:41:20.433Z,22.73
2019-03-24T23:43:25.579Z,22.00
2019-03-24T23:45:30.394Z,21.80
2019-03-24T23:47:35.204Z,21.33
2019-03-24T23:49:40.218Z,21.17
2019-03-24T23:51:44.964Z,21.80
2019-03-24T23:53:50.366Z,21.93
2019-03-24T23:55:55.683Z,22.07
2019-03-24T23:58:01.161Z,21.97
